KSPS/SPS METAR and TAF weather

Enter ICAO airport designator
Station Type Date Time Source
KSPS METAR 2020/09/27 15:52 UTC NOAA

KSPS 271552Z 20021G26KT 10SM CLR 28/21 A2966 RMK AO2 PK WND 19029/1454 SLP028 T02830206


Station Type Date Time Source
KSPS Decoded METAR 2020/09/27 15:52 UTC NOAA

WICHITA FALLS SHEPPARD AFB, TX, United States (KSPS) 33-59N 98-30W 308M
Sep 27, 2020 - 11:52 AM EDT / 2020.09.27 1552 UTC
Wind: from the SSW (200 degrees) at 24 MPH (21 KT) gusting to 30 MPH (26 KT):0
Visibility: 10 mile(s):0
Sky conditions: clear
Temperature: 82.9 F (28.3 C)
Dew Point: 69.1 F (20.6 C)
Relative Humidity: 63%
Pressure (altimeter): 29.66 in. Hg (1004 hPa)
ob: KSPS 271552Z 20021G26KT 10SM CLR 28/21 A2966 RMK AO2 PK WND 19029/1454 SLP028 T02830206
cycle: 16

Station Type Date Time Source
KSPS TAF 2020/09/27 12:28 UTC NOAA

TAF KSPS 271126Z 2712/2812 16011KT P6SM SKC
FM271400 18016G23KT P6SM SCT040
FM272200 34010KT P6SM SCT040
FM280100 01024G36KT P6SM BKN030
FM280400 01022G32KT P6SM SCT050

Example: see airport list